createdAt,value
2023-03-02T00:02:10.635Z,1.65
2023-03-02T00:07:34.787Z,1.50
2023-03-02T00:12:58.329Z,1.47
2023-03-02T00:18:20.167Z,1.44
2023-03-02T00:23:42.039Z,1.39
2023-03-02T00:29:04.380Z,1.32
2023-03-02T00:34:26.346Z,1.22
2023-03-02T00:39:48.256Z,1.13
2023-03-02T00:45:10.228Z,1.13
2023-03-02T00:50:32.136Z,1.12
2023-03-02T00:55:54.976Z,1.06
2023-03-02T01:01:18.697Z,0.99
2023-03-02T01:06:40.779Z,0.99
2023-03-02T01:12:02.683Z,0.91
2023-03-02T01:17:24.686Z,0.92
2023-03-02T01:22:46.585Z,0.82
2023-03-02T01:28:08.468Z,0.67
2023-03-02T01:33:31.350Z,0.64
2023-03-02T01:38:53.267Z,0.79
2023-03-02T01:44:40.026Z,0.71
2023-03-02T01:50:16.558Z,0.63
2023-03-02T01:55:39.326Z,0.58
2023-03-02T02:01:01.262Z,0.52
2023-03-02T02:06:35.117Z,0.61
2023-03-02T02:11:57.220Z,0.53
2023-03-02T02:17:19.877Z,0.64
2023-03-02T02:23:11.473Z,0.52
2023-03-02T02:29:08.959Z,0.56
2023-03-02T02:34:50.731Z,0.58
2023-03-02T02:40:18.465Z,0.82
2023-03-02T02:45:41.044Z,0.84
2023-03-02T02:51:03.125Z,0.90
2023-03-02T02:56:28.460Z,0.86
2023-03-02T03:01:51.302Z,0.91
2023-03-02T03:07:19.662Z,1.05
2023-03-02T03:12:42.531Z,1.00
2023-03-02T03:18:04.474Z,1.05
2023-03-02T03:23:26.632Z,1.18
2023-03-02T03:28:48.496Z,1.15
2023-03-02T03:34:11.033Z,1.15
2023-03-02T03:39:33.313Z,1.22
2023-03-02T03:44:55.148Z,1.36
2023-03-02T03:50:17.081Z,1.31
2023-03-02T03:55:39.020Z,1.39
2023-03-02T04:01:00.852Z,1.11
2023-03-02T04:06:22.674Z,1.25
2023-03-02T04:11:47.219Z,1.14
2023-03-02T04:17:09.107Z,0.94
2023-03-02T04:22:30.960Z,1.23
2023-03-02T04:27:53.604Z,1.17
2023-03-02T04:33:15.420Z,0.97
2023-03-02T04:38:37.262Z,1.17
2023-03-02T04:43:59.275Z,1.14
2023-03-02T04:49:21.182Z,1.05
2023-03-02T04:54:42.983Z,1.06
2023-03-02T05:00:05.348Z,1.22
2023-03-02T05:05:27.803Z,1.35
2023-03-02T05:10:49.645Z,1.24
2023-03-02T05:16:11.632Z,1.07
2023-03-02T05:21:33.988Z,1.25
2023-03-02T05:26:55.871Z,1.22
2023-03-02T05:32:17.821Z,1.25
2023-03-02T05:37:40.006Z,1.35
2023-03-02T05:43:02.349Z,1.46
2023-03-02T05:48:24.212Z,1.37
2023-03-02T05:53:46.046Z,1.58
2023-03-02T05:59:08.550Z,1.42
2023-03-02T06:04:30.585Z,1.52
2023-03-02T06:09:52.476Z,1.38
2023-03-02T06:15:14.335Z,1.36
2023-03-02T06:20:36.166Z,1.55
2023-03-02T06:25:58.632Z,1.61
2023-03-02T06:31:21.241Z,1.55
2023-03-02T06:36:43.196Z,1.52
2023-03-02T06:42:05.042Z,1.49
2023-03-02T06:47:26.892Z,1.57
2023-03-02T06:52:48.833Z,1.82
2023-03-02T06:58:10.668Z,1.74
2023-03-02T07:03:32.565Z,1.68
2023-03-02T07:08:54.582Z,1.88
2023-03-02T07:14:16.448Z,2.02
2023-03-02T07:19:40.648Z,1.77
2023-03-02T07:25:03.028Z,2.04
2023-03-02T07:30:25.729Z,2.11
2023-03-02T07:35:48.089Z,1.87
2023-03-02T07:41:10.441Z,1.87
2023-03-02T07:46:32.362Z,1.79
2023-03-02T07:51:54.302Z,2.15
2023-03-02T07:57:16.294Z,2.25
2023-03-02T08:02:40.052Z,2.36
2023-03-02T08:08:02.015Z,2.57
2023-03-02T08:13:23.837Z,2.78
2023-03-02T08:18:45.713Z,2.83
2023-03-02T08:24:07.830Z,2.76
2023-03-02T08:29:30.666Z,3.04
2023-03-02T08:34:52.555Z,3.21
2023-03-02T08:40:14.658Z,3.48
2023-03-02T08:45:36.567Z,3.74
2023-03-02T08:51:07.710Z,4.12
2023-03-02T08:56:33.182Z,4.08
2023-03-02T09:01:55.287Z,4.35
2023-03-02T09:07:17.219Z,4.20
2023-03-02T09:12:39.157Z,4.61
2023-03-02T09:18:01.048Z,4.55
2023-03-02T09:23:23.151Z,4.81
2023-03-02T09:28:45.011Z,4.64
2023-03-02T09:34:06.923Z,4.92
2023-03-02T09:39:28.808Z,4.65
2023-03-02T09:45:00.144Z,4.76
2023-03-02T09:50:34.833Z,4.70
2023-03-02T09:55:59.001Z,4.55
2023-03-02T10:01:32.675Z,4.15
2023-03-02T10:07:19.966Z,4.23
2023-03-02T10:13:19.085Z,4.42
2023-03-02T10:19:05.609Z,4.55
2023-03-02T10:24:45.792Z,4.44
2023-03-02T10:30:14.606Z,4.38
2023-03-02T10:35:37.980Z,4.34
2023-03-02T10:41:05.862Z,4.16
2023-03-02T10:46:39.655Z,4.20
2023-03-02T10:52:03.467Z,4.18
2023-03-02T10:57:34.425Z,3.67
2023-03-02T11:03:01.908Z,3.99
2023-03-02T11:08:28.559Z,4.23
2023-03-02T11:13:50.504Z,4.33
2023-03-02T11:19:17.590Z,4.39
2023-03-02T11:31:14.208Z,4.33
2023-03-02T11:36:44.237Z,4.65
2023-03-02T11:42:19.267Z,4.40
2023-03-02T11:47:57.651Z,4.08
2023-03-02T11:53:30.306Z,4.33
2023-03-02T11:58:59.691Z,4.55
2023-03-02T12:04:27.563Z,4.74
2023-03-02T12:10:04.517Z,4.80
2023-03-02T12:15:42.938Z,4.84
2023-03-02T12:21:23.259Z,4.92
2023-03-02T12:26:45.239Z,5.02
2023-03-02T12:32:13.892Z,4.88
2023-03-02T12:37:53.640Z,4.91
2023-03-02T12:43:35.100Z,4.60
2023-03-02T12:49:14.099Z,4.41
2023-03-02T12:54:36.170Z,4.50
2023-03-02T13:00:01.442Z,4.69
2023-03-02T13:05:28.810Z,4.83
2023-03-02T13:10:53.780Z,4.77
2023-03-02T13:16:41.074Z,4.62
2023-03-02T13:22:04.253Z,4.81
2023-03-02T13:27:26.897Z,4.86
2023-03-02T13:32:49.113Z,5.16
2023-03-02T13:38:17.600Z,5.13
2023-03-02T13:43:39.783Z,4.76
2023-03-02T13:49:10.376Z,4.70
2023-03-02T13:54:37.656Z,4.76
2023-03-02T13:59:59.985Z,4.66
2023-03-02T14:05:24.000Z,5.03
2023-03-02T14:10:46.981Z,4.97
2023-03-02T14:16:16.504Z,5.07
2023-03-02T14:21:38.541Z,5.23
2023-03-02T14:27:00.727Z,4.54
2023-03-02T14:32:22.599Z,4.57
2023-03-02T14:37:48.473Z,4.54
2023-03-02T14:43:10.928Z,4.27
2023-03-02T14:48:32.787Z,4.15
2023-03-02T14:53:58.010Z,4.16
2023-03-02T14:59:19.955Z,4.14
2023-03-02T15:04:41.849Z,4.14
2023-03-02T15:10:04.068Z,4.00
2023-03-02T15:15:25.913Z,4.14
2023-03-02T15:20:47.790Z,4.22
2023-03-02T15:26:10.564Z,4.24
2023-03-02T15:31:32.773Z,3.77
2023-03-02T15:36:54.875Z,3.98
2023-03-02T15:42:16.694Z,3.78
2023-03-02T15:47:38.538Z,3.46
2023-03-02T15:53:00.423Z,3.32
2023-03-02T15:58:22.642Z,2.95
2023-03-02T16:03:44.715Z,2.92
2023-03-02T16:09:07.052Z,2.74
2023-03-02T16:14:28.937Z,2.73
2023-03-02T16:19:50.759Z,2.69
2023-03-02T16:25:12.623Z,2.59
2023-03-02T16:30:34.794Z,2.44
2023-03-02T16:35:56.623Z,2.38
2023-03-02T16:41:23.727Z,2.25
2023-03-02T16:46:45.753Z,2.09
2023-03-02T16:52:07.584Z,2.09
2023-03-02T16:57:29.440Z,1.97
2023-03-02T17:02:51.838Z,1.91
2023-03-02T17:08:15.372Z,1.84
2023-03-02T17:13:37.415Z,1.80
2023-03-02T17:18:59.983Z,1.76
2023-03-02T17:24:21.886Z,1.76
2023-03-02T17:29:43.799Z,1.56
2023-03-02T17:35:07.397Z,1.56
2023-03-02T17:40:29.330Z,1.51
2023-03-02T17:45:51.229Z,1.48
2023-03-02T17:51:13.267Z,1.42
2023-03-02T17:56:35.209Z,1.36
2023-03-02T18:01:57.091Z,1.27
2023-03-02T18:07:19.054Z,1.27
2023-03-02T18:12:41.025Z,1.27
2023-03-02T18:18:03.198Z,1.23
2023-03-02T18:23:25.262Z,1.19
2023-03-02T18:28:47.234Z,1.08
2023-03-02T18:34:09.222Z,1.12
2023-03-02T18:39:31.179Z,1.08
2023-03-02T18:44:53.283Z,1.04
2023-03-02T18:50:15.187Z,0.91
2023-03-02T18:55:37.130Z,0.85
2023-03-02T19:00:58.980Z,0.82
2023-03-02T19:06:22.070Z,0.80
2023-03-02T19:11:43.985Z,0.82
2023-03-02T19:17:05.830Z,0.71
2023-03-02T19:22:27.693Z,0.76
2023-03-02T19:27:49.694Z,0.71
2023-03-02T19:33:11.572Z,0.74
2023-03-02T19:38:33.445Z,0.75
2023-03-02T19:43:55.275Z,0.69
2023-03-02T19:49:17.395Z,0.70
2023-03-02T19:54:39.216Z,0.53
2023-03-02T20:00:01.037Z,0.61
2023-03-02T20:05:23.209Z,0.53
2023-03-02T20:10:46.555Z,0.27
2023-03-02T20:16:08.835Z,0.46
2023-03-02T20:21:31.678Z,0.50
2023-03-02T20:26:53.552Z,0.45
2023-03-02T20:32:16.013Z,0.41
2023-03-02T20:37:38.574Z,0.36
2023-03-02T20:43:00.463Z,0.37
2023-03-02T20:48:22.527Z,0.31
2023-03-02T20:53:44.420Z,0.27
2023-03-02T20:59:06.328Z,0.16
2023-03-02T21:04:28.274Z,0.21
2023-03-02T21:09:50.207Z,0.31
2023-03-02T21:15:12.384Z,0.26
2023-03-02T21:20:34.732Z,0.21
2023-03-02T21:25:56.691Z,0.19
2023-03-02T21:31:18.628Z,0.25
2023-03-02T21:36:41.961Z,0.30
2023-03-02T21:42:03.966Z,0.28
2023-03-02T21:47:25.811Z,0.19
2023-03-02T21:52:47.935Z,0.32
2023-03-02T21:58:10.469Z,0.32
2023-03-02T22:03:32.319Z,0.34
2023-03-02T22:08:55.122Z,0.36
2023-03-02T22:14:17.775Z,0.38
2023-03-02T22:19:43.031Z,0.39
2023-03-02T22:25:14.516Z,0.45
2023-03-02T22:30:36.340Z,0.46
2023-03-02T22:36:11.655Z,0.41
2023-03-02T22:41:33.636Z,0.44
2023-03-02T22:46:56.096Z,0.35
2023-03-02T22:52:23.812Z,0.44
2023-03-02T22:57:45.704Z,0.42
2023-03-02T23:03:44.288Z,0.37
2023-03-02T23:09:06.690Z,0.39
2023-03-02T23:14:52.939Z,0.25
2023-03-02T23:20:16.179Z,0.33
2023-03-02T23:25:38.053Z,0.27
2023-03-02T23:30:59.901Z,0.28
2023-03-02T23:36:21.813Z,0.25
2023-03-02T23:41:43.706Z,0.19
2023-03-02T23:47:05.647Z,0.21
2023-03-02T23:52:27.490Z,0.14
2023-03-02T23:57:49.389Z,0.17
